Time;durP1;ratioP1;P1;durP2;ratioP2;P2;SDS_P1;SDS_P2;PMS_P1;PMS_P2;Temp;Humidity;BMP_temperature;BMP_pressure;BME280_temperature;BME280_humidity;BME280_pressure;Samples;Min_cycle;Max_cycle;Signal;HPM_P1;HPM_P2
2022/01/11 00:00:24;;;;;;;5.70;2.47;;;7.70;63.30;;;;;;5043697;28;20048;-73
2022/01/11 00:02:51;;;;;;;10.10;3.22;;;7.70;63.90;;;;;;5044381;28;20037;-73
2022/01/11 00:05:27;;;;;;;5.13;2.47;;;7.60;64.20;;;;;;5047638;28;20061;-73
2022/01/11 00:07:54;;;;;;;10.57;2.45;;;7.60;64.50;;;;;;5045796;28;20075;-72
2022/01/11 00:10:30;;;;;;;6.60;2.50;;;7.70;64.50;;;;;;5044409;28;20024;-73
2022/01/11 00:12:57;;;;;;;5.80;2.97;;;7.70;64.50;;;;;;5043676;28;20037;-73
2022/01/11 00:15:23;;;;;;;8.23;2.67;;;7.70;64.70;;;;;;5043881;28;20053;-73
2022/01/11 00:17:49;;;;;;;12.40;3.20;;;7.60;65.00;;;;;;5043983;28;20026;-73
2022/01/11 00:20:17;;;;;;;9.88;3.00;;;7.60;65.10;;;;;;5047719;28;20559;-73
2022/01/11 00:25:36;;;;;;;7.57;2.70;;;7.50;65.40;;;;;;4964626;28;20086;-73
2022/01/11 00:28:03;;;;;;;5.45;2.30;;;7.60;64.80;;;;;;4975339;28;20410;-73
2022/01/11 00:30:35;;;;;;;7.13;2.60;;;7.60;64.80;;;;;;4965833;28;20053;-73
2022/01/11 00:33:04;;;;;;;6.22;2.67;;;7.50;65.20;;;;;;4962227;28;20118;-73
2022/01/11 00:36:15;;;;;;;7.22;3.20;;;7.50;65.20;;;;;;4961869;28;20461;-73
2022/01/11 00:38:18;;;;;;;6.82;2.72;;;7.50;65.20;;;;;;4956210;28;20581;-72
2022/01/11 00:40:57;;;;;;;7.60;2.72;;;7.40;65.40;;;;;;4959277;28;20065;-73
2022/01/11 00:43:25;;;;;;;5.18;2.75;;;7.30;66.20;;;;;;4969095;28;20039;-73
2022/01/11 00:45:52;;;;;;;6.97;2.58;;;7.40;65.30;;;;;;4968809;28;20023;-73
2022/01/11 00:48:19;;;;;;;9.43;3.08;;;7.30;65.10;;;;;;4966300;28;20043;-73
2022/01/11 00:50:46;;;;;;;7.75;2.75;;;7.30;64.80;;;;;;4965419;28;20074;-73
2022/01/11 00:53:12;;;;;;;8.25;3.08;;;7.40;64.40;;;;;;4965956;28;20035;-73
2022/01/11 00:55:38;;;;;;;7.85;2.45;;;7.40;64.30;;;;;;4965704;28;20442;-73
2022/01/11 00:58:04;;;;;;;8.38;3.17;;;7.40;64.50;;;;;;4967588;28;20031;-74
2022/01/11 01:00:32;;;;;;;7.57;2.67;;;7.40;64.40;;;;;;4967792;28;20097;-73
2022/01/11 01:02:58;;;;;;;6.07;2.45;;;7.40;64.40;;;;;;5017783;28;20037;-73
2022/01/11 01:05:24;;;;;;;6.18;2.60;;;7.40;64.30;;;;;;5048061;28;20038;-73
2022/01/11 01:07:50;;;;;;;7.75;2.83;;;7.30;63.90;;;;;;5047139;28;20044;-73
2022/01/11 01:10:36;;;;;;;7.38;2.75;;;7.40;64.00;;;;;;5050623;28;20458;-73
2022/01/11 01:13:05;;;;;;;7.65;2.63;;;7.40;63.70;;;;;;5048996;28;20029;-73
2022/01/11 01:15:34;;;;;;;8.35;3.20;;;7.30;63.50;;;;;;5047376;28;20029;-73
2022/01/11 01:18:00;;;;;;;8.57;3.38;;;7.40;63.50;;;;;;5047286;28;20397;-73
2022/01/11 01:20:26;;;;;;;6.28;3.00;;;7.40;63.40;;;;;;5047302;28;20041;-73
2022/01/11 01:22:52;;;;;;;7.22;2.92;;;7.40;62.60;;;;;;5047622;28;20377;-73
2022/01/11 01:25:23;;;;;;;5.68;2.70;;;7.50;62.90;;;;;;5050083;28;20040;-73
2022/01/11 01:27:51;;;;;;;4.95;2.53;;;7.50;62.80;;;;;;5049198;28;20037;-73
2022/01/11 01:30:17;;;;;;;8.60;2.78;;;7.50;62.80;;;;;;5047059;28;20116;-73
2022/01/11 01:32:44;;;;;;;5.32;2.47;;;7.50;62.80;;;;;;5047681;28;20083;-73
2022/01/11 01:35:11;;;;;;;7.30;3.03;;;7.50;63.00;;;;;;5047023;28;20028;-73
2022/01/11 01:37:36;;;;;;;6.40;2.85;;;7.40;62.70;;;;;;5049579;28;20110;-73
2022/01/11 01:40:04;;;;;;;7.68;3.03;;;7.40;63.30;;;;;;5051522;28;20104;-73
2022/01/11 01:42:31;;;;;;;5.55;3.00;;;7.50;62.80;;;;;;5055323;28;20058;-73
2022/01/11 01:45:00;;;;;;;7.90;3.05;;;7.40;63.20;;;;;;5053581;28;20029;-73
2022/01/11 01:47:26;;;;;;;5.10;2.95;;;7.30;63.60;;;;;;5050876;28;20139;-73
2022/01/11 01:49:52;;;;;;;6.90;2.85;;;7.30;63.70;;;;;;5050581;28;20055;-73
2022/01/11 01:52:18;;;;;;;8.48;3.50;;;7.30;64.10;;;;;;5052348;28;20024;-73
2022/01/11 01:54:44;;;;;;;7.32;3.17;;;7.20;64.10;;;;;;5051125;28;20166;-73
2022/01/11 01:57:10;;;;;;;7.03;2.83;;;7.20;64.40;;;;;;5049794;28;20116;-73
2022/01/11 01:59:36;;;;;;;6.72;3.17;;;7.20;64.20;;;;;;5050185;28;20499;-73
2022/01/11 02:02:03;;;;;;;8.73;3.20;;;7.10;64.50;;;;;;5050379;28;20496;-73
2022/01/11 02:04:29;;;;;;;7.25;3.15;;;7.00;64.80;;;;;;5052663;28;20024;-73
2022/01/11 02:06:54;;;;;;;6.53;3.35;;;7.10;65.10;;;;;;5051292;28;20037;-73
2022/01/11 02:09:20;;;;;;;9.85;3.83;;;7.10;65.10;;;;;;5050172;28;20411;-73
2022/01/11 02:11:47;;;;;;;8.25;3.03;;;7.10;65.50;;;;;;5049731;28;20567;-73
2022/01/11 02:14:13;;;;;;;7.75;3.13;;;7.10;65.10;;;;;;5050002;28;20037;-73
2022/01/11 02:16:39;;;;;;;7.55;3.03;;;7.10;65.50;;;;;;5050998;28;20037;-73
2022/01/11 02:19:05;;;;;;;9.65;3.45;;;7.10;65.70;;;;;;5052376;28;20025;-73
2022/01/11 02:21:32;;;;;;;7.35;3.50;;;7.10;65.70;;;;;;5054161;28;20031;-73
2022/01/11 02:23:59;;;;;;;7.65;3.70;;;7.10;65.90;;;;;;5049883;28;20134;-73
2022/01/11 02:26:25;;;;;;;8.20;3.13;;;7.00;66.00;;;;;;5049413;28;20029;-73
2022/01/11 02:28:51;;;;;;;6.80;3.22;;;7.00;66.20;;;;;;5050058;28;20068;-73
2022/01/11 02:31:18;;;;;;;8.10;3.58;;;6.90;66.50;;;;;;5052655;28;20399;-73
2022/01/11 02:33:45;;;;;;;7.55;3.45;;;6.90;66.80;;;;;;5050135;28;20025;-73
2022/01/11 02:36:18;;;;;;;6.88;3.67;;;6.90;66.50;;;;;;5050021;28;20021;-73
2022/01/11 02:38:46;;;;;;;8.00;3.70;;;6.90;66.90;;;;;;5049461;28;20483;-73
2022/01/11 02:41:11;;;;;;;7.50;3.78;;;6.90;66.90;;;;;;5049086;28;20100;-73
2022/01/11 02:43:48;;;;;;;8.77;4.20;;;6.80;67.00;;;;;;5050929;28;20120;-73
2022/01/11 02:46:20;;;;;;;7.95;3.38;;;6.90;67.40;;;;;;5051785;28;20025;-73
2022/01/11 02:48:46;;;;;;;7.10;3.35;;;6.90;67.40;;;;;;5049262;28;20060;-73
2022/01/11 02:51:12;;;;;;;8.63;3.67;;;6.80;67.30;;;;;;5049058;28;20013;-73
2022/01/11 02:53:43;;;;;;;9.90;4.07;;;6.80;67.80;;;;;;5049267;28;20032;-73
2022/01/11 02:56:09;;;;;;;7.75;3.90;;;6.80;67.70;;;;;;5049302;28;20565;-73
2022/01/11 02:58:35;;;;;;;9.20;3.88;;;6.80;67.60;;;;;;5059239;28;20032;-73
2022/01/11 03:01:01;;;;;;;7.72;3.80;;;6.80;67.40;;;;;;5050795;28;20423;-73
2022/01/11 03:03:27;;;;;;;6.57;3.58;;;6.80;67.30;;;;;;5048958;28;20056;-72
2022/01/11 03:05:56;;;;;;;8.05;3.90;;;6.80;67.60;;;;;;5049109;28;20492;-73
2022/01/11 03:08:24;;;;;;;12.00;3.95;;;6.80;67.60;;;;;;5048898;28;20036;-73
2022/01/11 03:10:51;;;;;;;6.68;3.88;;;6.80;67.10;;;;;;5049132;28;20059;-73
2022/01/11 03:13:17;;;;;;;11.60;4.63;;;6.70;67.40;;;;;;5051995;28;20036;-72
2022/01/11 03:15:45;;;;;;;9.95;3.42;;;6.70;67.60;;;;;;5050736;28;20383;-73
2022/01/11 03:18:12;;;;;;;7.22;3.88;;;6.60;68.00;;;;;;5048590;28;20071;-73
2022/01/11 03:20:39;;;;;;;7.32;3.53;;;6.60;68.40;;;;;;5048760;28;20086;-73
2022/01/11 03:23:05;;;;;;;11.48;3.80;;;6.60;68.40;;;;;;5048469;28;20404;-73
2022/01/11 03:25:32;;;;;;;7.57;3.67;;;6.50;68.60;;;;;;5051040;28;20020;-72
2022/01/11 03:27:58;;;;;;;10.15;3.90;;;6.50;69.00;;;;;;5049835;28;20122;-73
2022/01/11 03:30:24;;;;;;;10.82;4.07;;;6.50;69.10;;;;;;5048625;28;20105;-72
2022/01/11 03:32:49;;;;;;;7.32;3.88;;;6.40;69.40;;;;;;5048563;28;20528;-73
2022/01/11 03:35:16;;;;;;;10.15;3.88;;;6.40;69.50;;;;;;5049725;28;20025;-73
2022/01/11 03:37:44;;;;;;;9.63;3.67;;;6.40;69.50;;;;;;5049230;28;20468;-73
2022/01/11 03:40:13;;;;;;;12.07;4.45;;;6.40;68.80;;;;;;5051714;28;20037;-73
2022/01/11 03:42:40;;;;;;;8.55;3.88;;;6.40;68.70;;;;;;5048094;28;20557;-73
2022/01/11 03:45:07;;;;;;;7.90;3.67;;;6.40;69.60;;;;;;5048619;28;20487;-73
2022/01/11 03:47:33;;;;;;;8.05;3.58;;;6.40;69.80;;;;;;5048048;28;20446;-73
2022/01/11 03:49:59;;;;;;;7.80;3.15;;;6.40;70.00;;;;;;5048434;28;20104;-73
2022/01/11 03:52:25;;;;;;;6.28;3.45;;;6.40;69.40;;;;;;5050176;28;20103;-73
2022/01/11 03:57:17;;;;;;;8.82;3.40;;;6.50;69.40;;;;;;5048076;28;20373;-73
2022/01/11 03:59:44;;;;;;;6.75;4.00;;;6.40;69.40;;;;;;5047581;28;20087;-73
2022/01/11 04:02:11;;;;;;;7.05;3.90;;;6.40;69.80;;;;;;5048426;28;20049;-73
2022/01/11 04:04:37;;;;;;;10.68;3.97;;;6.40;69.60;;;;;;5049430;28;20047;-73
2022/01/11 04:07:03;;;;;;;8.05;3.42;;;6.40;69.30;;;;;;5049575;28;20017;-73
2022/01/11 04:09:28;;;;;;;5.97;3.30;;;6.30;69.30;;;;;;5048283;28;20037;-73
2022/01/11 04:11:55;;;;;;;7.00;3.55;;;6.40;69.20;;;;;;5047890;28;20400;-73
2022/01/11 04:14:22;;;;;;;8.00;3.55;;;6.40;68.70;;;;;;5048108;28;20021;-73
2022/01/11 04:16:48;;;;;;;10.35;4.07;;;6.40;68.70;;;;;;5047944;28;20150;-73
2022/01/11 04:19:14;;;;;;;8.68;3.75;;;6.50;68.40;;;;;;5051305;28;20024;-73
2022/01/11 04:21:40;;;;;;;7.90;3.85;;;6.40;68.40;;;;;;5047298;28;20033;-73
2022/01/11 04:24:08;;;;;;;9.43;3.72;;;6.40;68.80;;;;;;5047949;28;20509;-73
2022/01/11 04:26:33;;;;;;;8.38;4.18;;;6.50;69.00;;;;;;5047633;28;20037;-73
2022/01/11 04:28:59;;;;;;;7.80;3.75;;;6.50;68.80;;;;;;5048039;28;20029;-73
2022/01/11 04:31:25;;;;;;;8.30;3.92;;;6.50;68.80;;;;;;5049981;28;20029;-73
2022/01/11 04:33:50;;;;;;;7.40;3.92;;;6.40;68.80;;;;;;5048592;28;20029;-73
2022/01/11 04:36:16;;;;;;;8.35;4.03;;;6.40;68.70;;;;;;5049474;28;20418;-73
2022/01/11 04:38:42;;;;;;;8.02;3.90;;;6.40;68.70;;;;;;5049685;28;20021;-73
2022/01/11 04:41:08;;;;;;;12.82;3.88;;;6.40;69.10;;;;;;5050159;28;20108;-73
2022/01/11 04:43:34;;;;;;;9.02;3.90;;;6.30;69.50;;;;;;5049770;28;20558;-73
2022/01/11 04:45:59;;;;;;;8.93;4.43;;;6.30;69.80;;;;;;5051646;28;20438;-73
2022/01/11 04:48:26;;;;;;;10.23;3.90;;;6.30;70.10;;;;;;5049713;28;20036;-73
2022/01/11 04:50:53;;;;;;;9.38;4.25;;;6.30;70.20;;;;;;5049525;28;20406;-72
2022/01/11 04:53:18;;;;;;;8.45;4.13;;;6.30;70.20;;;;;;5055589;28;20338;-73
2022/01/11 04:55:44;;;;;;;8.75;4.22;;;6.40;69.90;;;;;;5047073;28;20561;-73
2022/01/11 04:58:10;;;;;;;10.60;4.90;;;6.40;70.10;;;;;;5050961;28;20035;-73
2022/01/11 05:00:36;;;;;;;8.98;4.38;;;6.30;70.10;;;;;;5047574;28;20048;-73
2022/01/11 05:03:02;;;;;;;7.97;4.32;;;6.30;70.20;;;;;;5048155;28;20578;-73
2022/01/11 05:05:29;;;;;;;8.05;4.07;;;6.30;70.30;;;;;;5047497;28;20107;-73
2022/01/11 05:07:56;;;;;;;10.75;4.53;;;6.30;70.50;;;;;;5047559;28;20091;-73
2022/01/11 05:10:23;;;;;;;8.07;4.50;;;6.30;71.10;;;;;;5050154;28;20519;-73
2022/01/11 05:12:49;;;;;;;8.40;4.85;;;6.30;71.20;;;;;;5049912;28;20045;-73
2022/01/11 05:15:15;;;;;;;10.15;4.63;;;6.30;70.80;;;;;;5051740;28;20063;-73
2022/01/11 05:17:42;;;;;;;9.27;4.50;;;6.30;71.00;;;;;;5053074;28;20031;-73
2022/01/11 05:20:09;;;;;;;9.02;5.03;;;6.20;71.10;;;;;;5053184;28;20040;-73
2022/01/11 05:22:35;;;;;;;8.85;4.20;;;6.20;71.20;;;;;;5053061;28;20025;-73
2022/01/11 05:25:00;;;;;;;9.10;4.30;;;6.10;71.40;;;;;;5054382;28;20082;-73
2022/01/11 05:27:30;;;;;;;10.73;5.15;;;6.20;71.40;;;;;;5053170;28;20029;-73
2022/01/11 05:29:56;;;;;;;9.00;4.40;;;6.20;70.90;;;;;;5053153;28;20036;-73
2022/01/11 05:32:22;;;;;;;10.82;4.60;;;6.10;71.00;;;;;;5053323;28;20021;-73
2022/01/11 05:34:48;;;;;;;8.68;4.20;;;6.10;71.20;;;;;;5052911;28;20040;-73
2022/01/11 05:37:14;;;;;;;8.52;4.38;;;6.10;71.10;;;;;;5050271;28;20066;-73
2022/01/11 05:39:39;;;;;;;9.90;4.63;;;6.10;71.30;;;;;;5052757;28;20028;-73
2022/01/11 05:42:09;;;;;;;8.77;4.35;;;6.10;72.00;;;;;;5050680;28;20574;-73
2022/01/11 05:44:35;;;;;;;8.63;4.00;;;6.00;71.30;;;;;;5050964;28;20021;-73
2022/01/11 05:47:02;;;;;;;7.25;4.47;;;5.90;71.40;;;;;;5050787;28;20503;-73
2022/01/11 05:49:28;;;;;;;10.10;4.13;;;6.00;71.40;;;;;;5052470;28;20036;-73
2022/01/11 05:51:53;;;;;;;11.75;4.15;;;6.00;71.00;;;;;;5051550;28;20024;-73
2022/01/11 05:54:19;;;;;;;8.82;4.30;;;6.10;70.50;;;;;;5050836;28;20036;-73
2022/01/11 05:56:45;;;;;;;5.93;3.78;;;6.00;70.80;;;;;;5050326;28;20107;-73
2022/01/11 05:59:11;;;;;;;9.13;4.20;;;6.00;70.70;;;;;;5050375;28;20071;-75
2022/01/11 06:01:36;;;;;;;7.13;3.78;;;6.00;70.80;;;;;;5051282;28;20206;-75
2022/01/11 06:04:02;;;;;;;7.68;3.80;;;6.00;70.50;;;;;;5053283;28;20024;-75
2022/01/11 06:06:28;;;;;;;5.75;3.58;;;5.90;70.50;;;;;;5052671;28;20100;-74
2022/01/11 06:08:54;;;;;;;8.18;4.07;;;5.90;70.60;;;;;;5052413;28;20039;-75
2022/01/11 06:11:19;;;;;;;9.63;4.35;;;5.90;70.80;;;;;;5052395;28;20052;-74
2022/01/11 06:13:45;;;;;;;9.10;3.60;;;5.90;70.90;;;;;;5051044;28;20025;-75
2022/01/11 06:16:11;;;;;;;7.57;3.83;;;6.00;70.50;;;;;;5053383;28;20104;-74
2022/01/11 06:18:36;;;;;;;8.77;3.72;;;5.90;70.70;;;;;;5051482;28;20028;-74
2022/01/11 06:21:03;;;;;;;8.57;4.20;;;5.90;70.70;;;;;;5052121;28;20025;-74
2022/01/11 06:23:28;;;;;;;7.95;3.83;;;5.90;70.30;;;;;;5051283;28;20051;-74
2022/01/11 06:25:54;;;;;;;9.18;3.85;;;5.90;70.10;;;;;;5051380;28;20033;-74
2022/01/11 06:28:20;;;;;;;8.70;3.90;;;6.00;70.30;;;;;;5052906;28;20037;-74
2022/01/11 06:30:47;;;;;;;10.10;4.40;;;6.00;69.90;;;;;;5052526;28;20086;-74
2022/01/11 06:33:13;;;;;;;7.72;3.67;;;5.90;69.80;;;;;;5050920;28;20036;-74
2022/01/11 06:35:39;;;;;;;7.13;3.78;;;5.90;69.70;;;;;;5050144;28;20239;-75
2022/01/11 06:38:05;;;;;;;8.88;4.32;;;6.00;70.30;;;;;;5050954;28;20023;-75
2022/01/11 06:40:31;;;;;;;7.97;3.95;;;5.90;70.00;;;;;;5051985;28;20025;-74
2022/01/11 06:42:56;;;;;;;9.15;3.47;;;5.90;70.20;;;;;;5051996;28;20060;-75
2022/01/11 06:45:22;;;;;;;10.80;4.43;;;5.80;70.80;;;;;;5050389;28;20041;-74
2022/01/11 06:47:48;;;;;;;7.38;4.72;;;5.80;70.80;;;;;;5050725;28;20048;-75
2022/01/11 06:50:14;;;;;;;10.70;4.47;;;5.80;71.10;;;;;;5051198;28;20033;-75
2022/01/11 06:52:40;;;;;;;11.77;5.10;;;5.80;71.00;;;;;;5050633;28;20037;-75
2022/01/11 06:55:07;;;;;;;8.18;4.47;;;5.70;71.10;;;;;;5053055;28;20025;-75
2022/01/11 06:57:33;;;;;;;10.13;5.43;;;5.60;71.60;;;;;;5050429;28;20029;-73
2022/01/11 06:59:59;;;;;;;9.70;4.75;;;5.50;71.90;;;;;;5050239;28;20059;-73
2022/01/11 07:02:25;;;;;;;9.43;4.65;;;5.40;71.90;;;;;;5050259;28;20123;-76
2022/01/11 07:04:50;;;;;;;9.27;4.53;;;5.40;72.10;;;;;;5050131;28;20559;-75
2022/01/11 07:07:16;;;;;;;7.95;4.18;;;5.40;72.30;;;;;;5052299;28;20032;-74
2022/01/11 07:09:42;;;;;;;9.90;4.32;;;5.50;71.00;;;;;;5050149;28;20037;-74
2022/01/11 07:12:08;;;;;;;7.18;4.18;;;5.60;70.50;;;;;;5050043;28;20036;-73
2022/01/11 07:14:34;;;;;;;9.50;4.43;;;5.60;70.30;;;;;;5049699;28;20079;-75
2022/01/11 07:17:00;;;;;;;8.80;4.15;;;5.60;70.60;;;;;;5049731;28;20025;-75
2022/01/11 07:19:29;;;;;;;11.13;4.55;;;5.70;69.60;;;;;;5051189;28;20029;-75
2022/01/11 07:21:56;;;;;;;7.80;4.30;;;5.70;69.60;;;;;;5050002;28;20037;-77
2022/01/11 07:24:23;;;;;;;9.27;5.00;;;5.80;69.50;;;;;;5055081;28;20094;-76
2022/01/11 07:26:49;;;;;;;9.55;5.10;;;5.70;69.80;;;;;;5051771;28;20104;-76
2022/01/11 07:29:14;;;;;;;11.30;5.00;;;5.70;69.70;;;;;;5049696;28;20108;-77
2022/01/11 07:31:41;;;;;;;13.50;5.30;;;5.70;69.90;;;;;;5049022;28;20535;-76
2022/01/11 07:34:08;;;;;;;11.15;5.70;;;5.80;69.90;;;;;;5051718;28;20056;-76
2022/01/11 07:36:34;;;;;;;13.98;5.60;;;5.80;70.10;;;;;;5048685;28;20112;-75
2022/01/11 07:39:00;;;;;;;9.57;5.18;;;5.80;70.30;;;;;;5049390;28;20108;-76
2022/01/11 07:41:26;;;;;;;13.75;5.75;;;5.80;70.60;;;;;;5049118;28;20043;-76
2022/01/11 07:43:52;;;;;;;12.10;5.28;;;5.70;70.50;;;;;;5049527;28;20021;-76
2022/01/11 07:46:17;;;;;;;10.70;6.10;;;5.80;71.00;;;;;;5051342;28;20430;-77
2022/01/11 07:48:43;;;;;;;11.73;5.78;;;5.80;70.80;;;;;;5047547;28;20025;-75
2022/01/11 07:51:10;;;;;;;10.05;4.90;;;5.80;70.90;;;;;;5048126;28;20515;-76
2022/01/11 07:53:36;;;;;;;11.05;5.93;;;5.80;71.00;;;;;;5047549;28;20033;-76
2022/01/11 07:56:02;;;;;;;10.85;5.75;;;5.90;71.00;;;;;;5048278;28;20061;-76
2022/01/11 07:58:28;;;;;;;14.70;6.20;;;5.90;70.90;;;;;;5049487;28;20380;-76
2022/01/11 08:00:53;;;;;;;11.70;5.82;;;6.00;70.90;;;;;;5050376;28;20106;-76
2022/01/11 08:03:19;;;;;;;11.13;5.50;;;6.10;70.90;;;;;;5048043;28;20146;-76
2022/01/11 08:05:45;;;;;;;14.98;6.45;;;6.10;70.90;;;;;;5047832;28;20403;-77
2022/01/11 08:08:10;;;;;;;12.98;6.70;;;6.10;70.50;;;;;;5047275;28;20495;-77
2022/01/11 08:10:36;;;;;;;12.23;6.60;;;6.20;70.40;;;;;;5049180;28;20453;-76
2022/01/11 08:13:05;;;;;;;12.88;6.30;;;6.20;70.30;;;;;;5049403;28;20040;-77
2022/01/11 08:15:32;;;;;;;11.85;6.57;;;6.40;70.30;;;;;;5047462;28;20036;-76
2022/01/11 08:17:59;;;;;;;9.98;5.65;;;6.40;70.10;;;;;;5047538;28;20053;-76
2022/01/11 08:20:25;;;;;;;10.05;5.55;;;6.50;69.90;;;;;;5047298;28;20029;-76
2022/01/11 08:22:53;;;;;;;10.07;5.72;;;6.50;69.80;;;;;;5047322;28;20036;-77
2022/01/11 08:25:20;;;;;;;11.48;5.78;;;6.60;69.50;;;;;;5050428;28;20045;-77
2022/01/11 08:27:46;;;;;;;13.27;6.40;;;6.80;69.40;;;;;;5047555;28;20033;-76
2022/01/11 08:30:12;;;;;;;13.35;5.97;;;7.30;68.50;;;;;;5046981;28;20017;-76
2022/01/11 08:32:39;;;;;;;11.88;6.18;;;8.70;65.30;;;;;;5047614;28;20033;-76
2022/01/11 08:35:05;;;;;;;11.02;5.90;;;11.20;58.60;;;;;;5047506;28;20017;-76
2022/01/11 08:37:31;;;;;;;14.68;6.47;;;13.40;52.90;;;;;;5050343;28;20409;-77
2022/01/11 08:39:57;;;;;;;11.85;6.75;;;14.70;50.00;;;;;;5052957;28;20017;-77
2022/01/11 08:42:25;;;;;;;11.32;6.35;;;15.80;47.20;;;;;;5047175;28;20087;-76
2022/01/11 08:44:51;;;;;;;12.30;6.10;;;16.50;46.20;;;;;;5047060;28;20025;-75
2022/01/11 08:47:18;;;;;;;13.05;7.13;;;16.90;44.60;;;;;;5048415;28;20029;-73
2022/01/11 08:49:44;;;;;;;13.45;6.70;;;17.20;43.90;;;;;;5051393;28;20026;-73
2022/01/11 08:52:10;;;;;;;13.27;7.18;;;17.30;43.60;;;;;;5054564;28;20029;-73
2022/01/11 08:54:36;;;;;;;10.90;6.50;;;17.00;43.30;;;;;;5052588;28;20025;-73
2022/01/11 08:57:03;;;;;;;12.27;5.85;;;16.70;44.30;;;;;;5051161;28;20108;-73
2022/01/11 08:59:29;;;;;;;12.02;5.95;;;15.80;45.50;;;;;;5051072;28;20029;-73
2022/01/11 09:01:57;;;;;;;12.02;5.80;;;14.80;46.40;;;;;;5051335;28;20080;-74
2022/01/11 09:04:23;;;;;;;11.85;6.15;;;13.40;49.50;;;;;;5050779;28;20025;-74
2022/01/11 09:06:51;;;;;;;8.45;5.40;;;12.50;51.60;;;;;;5052441;28;20020;-74
2022/01/11 09:09:19;;;;;;;9.13;5.43;;;11.90;53.20;;;;;;5050841;28;20560;-74
2022/01/11 09:11:46;;;;;;;11.95;5.95;;;11.60;53.80;;;;;;5050653;28;20021;-74
2022/01/11 09:14:12;;;;;;;10.35;5.03;;;11.30;54.60;;;;;;5051021;28;20057;-73
2022/01/11 09:16:38;;;;;;;10.00;5.78;;;11.20;55.00;;;;;;5054383;28;24316;-74
2022/01/11 09:19:04;;;;;;;11.82;5.60;;;11.00;55.50;;;;;;5053535;28;20020;-74
2022/01/11 09:21:31;;;;;;;11.68;6.32;;;11.00;55.70;;;;;;5050044;28;20090;-73
2022/01/11 09:23:57;;;;;;;11.65;5.80;;;11.00;56.00;;;;;;5050177;28;20028;-75
2022/01/11 09:26:23;;;;;;;12.15;6.07;;;11.10;55.50;;;;;;5050317;28;20025;-75
2022/01/11 09:28:49;;;;;;;10.75;5.47;;;11.00;55.90;;;;;;5050457;28;20033;-75
2022/01/11 09:31:16;;;;;;;12.48;5.68;;;11.00;55.80;;;;;;5052942;28;20021;-76
2022/01/11 09:33:42;;;;;;;12.40;5.50;;;11.10;56.10;;;;;;5049813;28;20029;-76
2022/01/11 09:36:07;;;;;;;12.15;6.13;;;11.10;55.80;;;;;;5049492;28;20385;-75
2022/01/11 09:38:34;;;;;;;12.65;6.05;;;11.20;55.60;;;;;;5049585;28;20036;-76
2022/01/11 09:41:00;;;;;;;13.35;6.50;;;11.20;55.60;;;;;;5049774;28;20440;-76
2022/01/11 09:43:28;;;;;;;13.52;6.15;;;11.10;55.90;;;;;;5049530;28;20032;-76
2022/01/11 09:45:56;;;;;;;14.63;7.03;;;11.20;55.80;;;;;;5050833;28;20013;-75
2022/01/11 09:48:29;;;;;;;10.50;6.25;;;11.20;55.50;;;;;;5050435;28;20032;-77
2022/01/11 09:50:56;;;;;;;13.50;6.38;;;11.30;54.80;;;;;;5049757;28;20024;-77
2022/01/11 09:53:22;;;;;;;14.02;6.38;;;11.40;54.50;;;;;;5050112;28;20041;-77
2022/01/11 09:55:49;;;;;;;10.50;6.18;;;11.40;54.50;;;;;;5058490;28;20132;-76
2022/01/11 09:58:15;;;;;;;15.65;6.53;;;11.40;54.10;;;;;;5050637;28;20025;-76
2022/01/11 10:00:41;;;;;;;13.93;7.60;;;11.40;54.20;;;;;;5049567;28;20056;-77
2022/01/11 10:03:07;;;;;;;15.43;6.60;;;11.50;54.20;;;;;;5049932;28;20120;-76
2022/01/11 10:05:35;;;;;;;11.88;6.30;;;11.60;53.90;;;;;;5050291;28;20028;-76
2022/01/11 10:08:27;;;;;;;11.70;6.38;;;11.70;54.30;;;;;;5049111;28;20428;-77
2022/01/11 10:10:59;;;;;;;11.70;6.47;;;11.70;54.30;;;;;;5044846;28;20056;-76
2022/01/11 10:13:32;;;;;;;10.27;5.75;;;11.80;54.40;;;;;;5051610;28;20162;-76
2022/01/11 10:16:16;;;;;;;10.60;5.85;;;11.90;53.90;;;;;;5052671;28;20029;-76
2022/01/11 10:18:41;;;;;;;;;;;11.90;53.00;;;;;;5048544;28;20115;-76
2022/01/11 10:21:33;;;;;;;13.43;5.68;;;11.80;53.80;;;;;;5049229;28;20426;-76
2022/01/11 10:23:59;;;;;;;15.82;6.50;;;12.00;53.90;;;;;;5049078;28;20503;-76
2022/01/11 10:26:44;;;;;;;20.02;7.25;;;12.00;53.70;;;;;;5049563;28;20392;-76
2022/01/11 10:29:41;;;;;;;10.65;6.13;;;12.10;53.30;;;;;;5048971;28;20063;-76
2022/01/11 10:32:15;;;;;;;16.58;7.35;;;12.10;53.60;;;;;;5050404;28;20542;-76
2022/01/11 10:34:43;;;;;;;10.95;6.53;;;12.10;54.00;;;;;;5049894;28;20029;-77
2022/01/11 10:37:10;;;;;;;19.85;7.40;;;12.00;53.90;;;;;;5051746;28;20024;-76
2022/01/11 10:39:41;;;;;;;12.88;7.18;;;12.00;53.40;;;;;;5048908;28;20056;-76
2022/01/11 10:42:32;;;;;;;13.77;6.45;;;12.00;53.80;;;;;;5049542;28;20111;-77
2022/01/11 10:45:04;;;;;;;12.60;6.28;;;12.00;54.10;;;;;;5044416;28;20017;-76
2022/01/11 10:47:35;;;;;;;11.07;6.45;;;11.90;53.60;;;;;;5048644;28;20572;-77
2022/01/11 10:50:07;;;;;;;15.05;7.05;;;11.90;54.00;;;;;;5048943;28;20049;-76
2022/01/11 10:52:34;;;;;;;13.95;7.55;;;11.80;54.10;;;;;;5050811;28;20117;-78
2022/01/11 10:55:02;;;;;;;12.07;7.40;;;11.80;54.80;;;;;;5050191;28;20021;-69
2022/01/11 10:57:30;;;;;;;15.57;8.02;;;12.10;54.30;;;;;;5050616;28;20052;-70
2022/01/11 11:00:09;;;;;;;16.80;8.32;;;12.30;54.10;;;;;;5048472;28;20048;-71
2022/01/11 11:02:35;;;;;;;17.45;8.02;;;12.30;53.90;;;;;;5048990;28;20074;-72
2022/01/11 11:05:23;;;;;;;18.70;9.30;;;12.40;53.80;;;;;;5048971;28;20051;-72
2022/01/11 11:08:01;;;;;;;17.38;8.70;;;12.40;53.60;;;;;;5041928;28;20028;-73
2022/01/11 11:10:45;;;;;;;16.48;7.72;;;12.40;54.00;;;;;;5048589;28;20041;-71
2022/01/11 11:13:17;;;;;;;16.33;7.45;;;12.30;54.20;;;;;;5051524;28;20029;-71
2022/01/11 11:15:43;;;;;;;15.07;8.20;;;12.30;54.00;;;;;;5049499;28;20029;-71
2022/01/11 11:18:32;;;;;;;18.65;8.02;;;12.30;54.10;;;;;;5048544;28;20389;-71
2022/01/11 11:21:32;;;;;;;17.13;8.07;;;12.30;53.70;;;;;;5043074;28;20569;-71
2022/01/11 11:24:00;;;;;;;18.27;8.77;;;12.20;53.40;;;;;;5042895;28;20399;-72
2022/01/11 11:26:33;;;;;;;14.43;8.15;;;12.30;53.60;;;;;;5048632;28;20028;-72
2022/01/11 11:28:59;;;;;;;11.18;6.32;;;12.50;53.50;;;;;;5048759;28;20033;-72
2022/01/11 11:31:25;;;;;;;14.40;6.97;;;12.60;53.10;;;;;;5050992;28;20450;-72
2022/01/11 11:33:51;;;;;;;14.23;7.43;;;12.80;52.90;;;;;;5050488;28;20021;-73
2022/01/11 11:36:18;;;;;;;11.73;6.97;;;13.00;53.40;;;;;;5048194;28;20503;-73
2022/01/11 11:39:13;;;;;;;12.45;6.65;;;13.20;52.70;;;;;;5048484;28;20446;-73
2022/01/11 11:41:41;;;;;;;13.77;7.70;;;13.20;52.30;;;;;;5048439;28;20466;-72
2022/01/11 11:44:10;;;;;;;12.10;7.05;;;13.50;52.10;;;;;;5048748;28;20021;-81
2022/01/11 11:46:50;;;;;;;11.93;7.70;;;13.60;51.90;;;;;;5049885;28;20051;-84
2022/01/11 11:49:18;;;;;;;14.63;7.25;;;13.50;51.90;;;;;;5048074;28;20045;-87
2022/01/11 11:51:44;;;;;;;12.27;6.43;;;13.70;51.50;;;;;;5048447;28;20019;-86
2022/01/11 11:54:15;;;;;;;14.77;6.45;;;13.70;51.00;;;;;;5048424;28;20044;-84
2022/01/11 11:56:46;;;;;;;14.35;6.20;;;13.50;51.20;;;;;;5049080;28;20025;-87
2022/01/11 11:59:12;;;;;;;11.90;6.95;;;13.50;50.50;;;;;;5048758;28;20021;-86
2022/01/11 12:01:41;;;;;;;14.05;6.70;;;13.50;50.60;;;;;;5050758;28;20140;-89
2022/01/11 12:04:10;;;;;;;13.25;7.03;;;13.70;51.10;;;;;;5052442;28;20099;-90
2022/01/11 12:06:35;;;;;;;10.82;6.50;;;13.60;50.30;;;;;;5050240;28;20495;-81
2022/01/11 12:09:11;;;;;;;12.20;6.35;;;13.70;50.20;;;;;;5049952;28;20039;-82
2022/01/11 12:11:42;;;;;;;13.20;6.25;;;13.80;49.90;;;;;;5049507;28;20132;-83
2022/01/11 12:14:29;;;;;;;12.35;6.22;;;14.20;49.70;;;;;;5048294;28;20029;-82
2022/01/11 12:16:56;;;;;;;12.45;6.38;;;14.50;49.50;;;;;;5042413;28;20500;-80
2022/01/11 12:19:45;;;;;;;10.77;5.80;;;14.50;48.70;;;;;;5050569;28;20075;-85
2022/01/11 12:22:10;;;;;;;11.23;6.53;;;14.60;48.50;;;;;;5049180;28;20407;-90
2022/01/11 12:24:45;;;;;;;12.82;6.82;;;14.90;48.30;;;;;;5049554;28;20033;-75
2022/01/11 12:27:14;;;;;;;12.40;6.57;;;15.20;47.40;;;;;;5047921;28;20025;-75
2022/01/11 12:30:09;;;;;;;13.40;6.95;;;15.60;47.60;;;;;;5047676;28;20070;-75
2022/01/11 12:32:38;;;;;;;;;;;17.10;46.10;;;;;;5048383;28;20377;-75
2022/01/11 12:35:09;;;;;;;11.57;6.13;;;19.40;43.30;;;;;;5048185;28;20363;-75
2022/01/11 12:37:38;;;;;;;9.95;5.97;;;21.60;41.20;;;;;;5049311;28;20039;-75
2022/01/11 12:40:13;;;;;;;16.35;6.88;;;22.60;39.00;;;;;;5050649;28;20021;-76
2022/01/11 12:42:56;;;;;;;10.88;6.35;;;23.40;37.50;;;;;;5049048;28;20051;-75
2022/01/11 12:46:19;;;;;;;16.00;7.40;;;24.40;36.90;;;;;;5036236;28;20104;-76
2022/01/11 12:48:49;;;;;;;11.25;6.05;;;25.30;36.30;;;;;;4967551;28;20049;-76
2022/01/11 12:51:40;;;;;;;9.43;5.60;;;25.80;35.10;;;;;;4967816;28;20039;-76
2022/01/11 12:54:32;;;;;;;11.70;6.15;;;25.10;34.30;;;;;;4948604;28;20130;-76
2022/01/11 12:57:04;;;;;;;10.35;6.20;;;22.50;36.40;;;;;;4963903;28;20546;-77
2022/01/11 12:59:35;;;;;;;15.30;7.43;;;22.80;38.10;;;;;;4967954;28;20102;-76